sensor_id;sensor_type;location;lat;lon;timestamp;temperature;humidity
50969;DHT22;36982;51.474;7.228;2023-05-23T00:01:35;15.50;76.10
50969;DHT22;36982;51.474;7.228;2023-05-23T00:04:04;15.50;74.50
50969;DHT22;36982;51.474;7.228;2023-05-23T00:06:30;15.50;71.50
50969;DHT22;36982;51.474;7.228;2023-05-23T00:08:56;15.50;73.80
50969;DHT22;36982;51.474;7.228;2023-05-23T00:11:22;15.60;73.20
50969;DHT22;36982;51.474;7.228;2023-05-23T00:13:52;15.60;72.70
50969;DHT22;36982;51.474;7.228;2023-05-23T00:16:18;15.60;71.50
50969;DHT22;36982;51.474;7.228;2023-05-23T00:18:44;15.60;71.60
50969;DHT22;36982;51.474;7.228;2023-05-23T00:21:10;15.50;68.50
50969;DHT22;36982;51.474;7.228;2023-05-23T00:23:38;15.50;70.20
50969;DHT22;36982;51.474;7.228;2023-05-23T00:26:07;15.50;68.40
50969;DHT22;36982;51.474;7.228;2023-05-23T00:28:32;15.40;58.50
50969;DHT22;36982;51.474;7.228;2023-05-23T00:30:58;15.40;63.80
50969;DHT22;36982;51.474;7.228;2023-05-23T00:33:24;15.40;72.30
50969;DHT22;36982;51.474;7.228;2023-05-23T00:35:50;15.40;76.10
50969;DHT22;36982;51.474;7.228;2023-05-23T00:38:16;15.40;79.40
50969;DHT22;36982;51.474;7.228;2023-05-23T00:40:42;15.30;79.40
50969;DHT22;36982;51.474;7.228;2023-05-23T00:43:07;15.30;81.40
50969;DHT22;36982;51.474;7.228;2023-05-23T00:45:33;15.40;79.20
50969;DHT22;36982;51.474;7.228;2023-05-23T00:47:59;15.40;73.10
50969;DHT22;36982;51.474;7.228;2023-05-23T00:50:26;15.30;72.10
50969;DHT22;36982;51.474;7.228;2023-05-23T00:52:56;15.30;73.50
50969;DHT22;36982;51.474;7.228;2023-05-23T00:55:23;15.20;70.30
50969;DHT22;36982;51.474;7.228;2023-05-23T00:57:51;15.30;71.50
50969;DHT22;36982;51.474;7.228;2023-05-23T01:00:19;15.30;69.80
50969;DHT22;36982;51.474;7.228;2023-05-23T01:02:46;15.20;63.40
50969;DHT22;36982;51.474;7.228;2023-05-23T01:05:16;15.10;61.60
50969;DHT22;36982;51.474;7.228;2023-05-23T01:07:43;15.10;64.30
50969;DHT22;36982;51.474;7.228;2023-05-23T01:10:09;15.00;59.90
50969;DHT22;36982;51.474;7.228;2023-05-23T01:15:07;15.10;60.90
50969;DHT22;36982;51.474;7.228;2023-05-23T01:17:51;15.20;61.40
50969;DHT22;36982;51.474;7.228;2023-05-23T01:21:24;15.20;59.70
50969;DHT22;36982;51.474;7.228;2023-05-23T01:29:12;15.20;59.40
50969;DHT22;36982;51.474;7.228;2023-05-23T01:31:44;15.20;58.50
50969;DHT22;36982;51.474;7.228;2023-05-23T01:34:12;15.20;60.70
50969;DHT22;36982;51.474;7.228;2023-05-23T01:36:42;15.20;58.20
50969;DHT22;36982;51.474;7.228;2023-05-23T01:39:07;15.30;57.30
50969;DHT22;36982;51.474;7.228;2023-05-23T01:41:33;15.30;58.90
50969;DHT22;36982;51.474;7.228;2023-05-23T01:43:59;15.40;57.60
50969;DHT22;36982;51.474;7.228;2023-05-23T01:46:27;15.40;53.90
50969;DHT22;36982;51.474;7.228;2023-05-23T01:48:54;15.40;50.40
50969;DHT22;36982;51.474;7.228;2023-05-23T01:51:21;15.50;48.60
50969;DHT22;36982;51.474;7.228;2023-05-23T01:53:51;15.50;48.30
50969;DHT22;36982;51.474;7.228;2023-05-23T01:56:17;15.50;45.40
50969;DHT22;36982;51.474;7.228;2023-05-23T01:58:44;15.50;48.00
50969;DHT22;36982;51.474;7.228;2023-05-23T02:01:10;15.50;46.80
50969;DHT22;36982;51.474;7.228;2023-05-23T02:03:36;15.50;51.20
50969;DHT22;36982;51.474;7.228;2023-05-23T02:06:01;15.50;51.30
50969;DHT22;36982;51.474;7.228;2023-05-23T02:08:27;15.50;55.90
50969;DHT22;36982;51.474;7.228;2023-05-23T02:10:52;15.50;53.90
50969;DHT22;36982;51.474;7.228;2023-05-23T02:13:18;15.50;52.00
50969;DHT22;36982;51.474;7.228;2023-05-23T02:15:44;15.40;58.40
50969;DHT22;36982;51.474;7.228;2023-05-23T02:18:09;15.40;62.90
50969;DHT22;36982;51.474;7.228;2023-05-23T02:20:35;15.30;58.10
50969;DHT22;36982;51.474;7.228;2023-05-23T02:23:01;15.30;64.90
50969;DHT22;36982;51.474;7.228;2023-05-23T02:25:26;15.30;67.00
50969;DHT22;36982;51.474;7.228;2023-05-23T02:27:52;15.30;68.20
50969;DHT22;36982;51.474;7.228;2023-05-23T02:30:17;15.30;68.20
50969;DHT22;36982;51.474;7.228;2023-05-23T02:32:43;15.30;70.10
50969;DHT22;36982;51.474;7.228;2023-05-23T02:35:09;15.40;69.20
50969;DHT22;36982;51.474;7.228;2023-05-23T02:37:35;15.40;66.70
50969;DHT22;36982;51.474;7.228;2023-05-23T02:40:00;15.40;72.70
50969;DHT22;36982;51.474;7.228;2023-05-23T02:42:26;15.30;70.80
50969;DHT22;36982;51.474;7.228;2023-05-23T02:44:52;15.40;74.60
50969;DHT22;36982;51.474;7.228;2023-05-23T02:47:17;15.40;71.80
50969;DHT22;36982;51.474;7.228;2023-05-23T02:49:43;15.40;72.90
50969;DHT22;36982;51.474;7.228;2023-05-23T02:52:09;15.40;71.90
50969;DHT22;36982;51.474;7.228;2023-05-23T02:54:34;15.30;71.90
50969;DHT22;36982;51.474;7.228;2023-05-23T02:57:00;15.40;76.80
50969;DHT22;36982;51.474;7.228;2023-05-23T02:59:25;15.40;74.60
50969;DHT22;36982;51.474;7.228;2023-05-23T03:01:51;15.40;78.30
50969;DHT22;36982;51.474;7.228;2023-05-23T03:04:17;15.30;84.30
50969;DHT22;36982;51.474;7.228;2023-05-23T03:06:42;15.30;83.10
50969;DHT22;36982;51.474;7.228;2023-05-23T03:09:08;15.20;82.60
50969;DHT22;36982;51.474;7.228;2023-05-23T03:11:34;15.10;86.80
50969;DHT22;36982;51.474;7.228;2023-05-23T03:14:00;15.10;87.80
50969;DHT22;36982;51.474;7.228;2023-05-23T03:16:25;15.10;88.00
50969;DHT22;36982;51.474;7.228;2023-05-23T03:18:51;15.10;82.30
50969;DHT22;36982;51.474;7.228;2023-05-23T03:21:17;15.00;78.30
50969;DHT22;36982;51.474;7.228;2023-05-23T03:23:42;15.00;79.30
50969;DHT22;36982;51.474;7.228;2023-05-23T03:26:08;14.90;84.70
50969;DHT22;36982;51.474;7.228;2023-05-23T03:28:34;15.00;80.50
50969;DHT22;36982;51.474;7.228;2023-05-23T03:30:59;15.00;75.60
50969;DHT22;36982;51.474;7.228;2023-05-23T03:33:25;14.90;74.70
50969;DHT22;36982;51.474;7.228;2023-05-23T03:35:51;14.90;76.00
50969;DHT22;36982;51.474;7.228;2023-05-23T03:38:17;15.00;71.70
50969;DHT22;36982;51.474;7.228;2023-05-23T03:40:42;14.90;73.30
50969;DHT22;36982;51.474;7.228;2023-05-23T03:43:08;14.90;71.90
50969;DHT22;36982;51.474;7.228;2023-05-23T03:45:34;14.90;72.70
50969;DHT22;36982;51.474;7.228;2023-05-23T03:48:00;14.90;74.50
50969;DHT22;36982;51.474;7.228;2023-05-23T03:50:26;15.00;73.60
50969;DHT22;36982;51.474;7.228;2023-05-23T03:52:52;15.00;70.30
50969;DHT22;36982;51.474;7.228;2023-05-23T03:55:22;15.00;72.00
50969;DHT22;36982;51.474;7.228;2023-05-23T03:57:49;14.80;72.60
50969;DHT22;36982;51.474;7.228;2023-05-23T04:00:15;14.80;75.50
50969;DHT22;36982;51.474;7.228;2023-05-23T04:02:41;14.80;80.90
50969;DHT22;36982;51.474;7.228;2023-05-23T04:05:08;14.70;80.50
50969;DHT22;36982;51.474;7.228;2023-05-23T04:07:33;14.60;83.30
50969;DHT22;36982;51.474;7.228;2023-05-23T04:10:00;14.60;85.90
50969;DHT22;36982;51.474;7.228;2023-05-23T04:12:25;14.60;87.10
50969;DHT22;36982;51.474;7.228;2023-05-23T04:14:51;14.60;86.70
50969;DHT22;36982;51.474;7.228;2023-05-23T04:17:17;14.60;88.90
50969;DHT22;36982;51.474;7.228;2023-05-23T04:19:43;14.60;88.20
50969;DHT22;36982;51.474;7.228;2023-05-23T04:22:09;14.60;86.20
50969;DHT22;36982;51.474;7.228;2023-05-23T04:24:35;14.60;87.40
50969;DHT22;36982;51.474;7.228;2023-05-23T04:27:01;14.60;88.50
50969;DHT22;36982;51.474;7.228;2023-05-23T04:29:27;14.70;87.90
50969;DHT22;36982;51.474;7.228;2023-05-23T04:31:56;14.70;86.00
50969;DHT22;36982;51.474;7.228;2023-05-23T04:34:22;14.70;87.20
50969;DHT22;36982;51.474;7.228;2023-05-23T04:36:47;14.70;86.70
50969;DHT22;36982;51.474;7.228;2023-05-23T04:39:14;14.80;87.80
50969;DHT22;36982;51.474;7.228;2023-05-23T04:41:40;14.80;87.50
50969;DHT22;36982;51.474;7.228;2023-05-23T04:44:06;14.90;87.30
50969;DHT22;36982;51.474;7.228;2023-05-23T04:46:34;14.80;87.60
50969;DHT22;36982;51.474;7.228;2023-05-23T04:49:01;14.80;85.30
50969;DHT22;36982;51.474;7.228;2023-05-23T04:51:28;14.70;84.00
50969;DHT22;36982;51.474;7.228;2023-05-23T04:53:54;14.70;87.70
50969;DHT22;36982;51.474;7.228;2023-05-23T04:56:20;14.80;87.20
50969;DHT22;36982;51.474;7.228;2023-05-23T04:58:46;14.80;86.20
50969;DHT22;36982;51.474;7.228;2023-05-23T05:01:12;14.90;84.10
50969;DHT22;36982;51.474;7.228;2023-05-23T05:03:39;14.90;83.70
50969;DHT22;36982;51.474;7.228;2023-05-23T05:06:05;14.90;84.70
50969;DHT22;36982;51.474;7.228;2023-05-23T05:08:31;15.00;83.10
50969;DHT22;36982;51.474;7.228;2023-05-23T05:10:57;15.00;75.80
50969;DHT22;36982;51.474;7.228;2023-05-23T05:13:22;14.80;78.80
50969;DHT22;36982;51.474;7.228;2023-05-23T05:15:48;14.80;81.80
50969;DHT22;36982;51.474;7.228;2023-05-23T05:18:14;14.70;84.60
50969;DHT22;36982;51.474;7.228;2023-05-23T05:20:40;14.70;86.90
50969;DHT22;36982;51.474;7.228;2023-05-23T05:23:06;14.80;84.30
50969;DHT22;36982;51.474;7.228;2023-05-23T05:25:34;14.70;83.30
50969;DHT22;36982;51.474;7.228;2023-05-23T05:28:01;14.80;83.80
50969;DHT22;36982;51.474;7.228;2023-05-23T05:30:35;14.90;77.40
50969;DHT22;36982;51.474;7.228;2023-05-23T05:33:02;14.80;80.90
50969;DHT22;36982;51.474;7.228;2023-05-23T05:35:30;14.80;82.10
50969;DHT22;36982;51.474;7.228;2023-05-23T05:37:56;14.80;85.00
50969;DHT22;36982;51.474;7.228;2023-05-23T05:40:21;14.80;83.50
50969;DHT22;36982;51.474;7.228;2023-05-23T05:42:47;14.80;84.00
50969;DHT22;36982;51.474;7.228;2023-05-23T05:45:13;14.80;83.90
50969;DHT22;36982;51.474;7.228;2023-05-23T05:47:38;14.80;82.80
50969;DHT22;36982;51.474;7.228;2023-05-23T05:50:05;14.70;84.70
50969;DHT22;36982;51.474;7.228;2023-05-23T05:52:32;14.70;84.50
50969;DHT22;36982;51.474;7.228;2023-05-23T05:54:59;14.60;84.80
50969;DHT22;36982;51.474;7.228;2023-05-23T05:57:24;14.60;85.20
50969;DHT22;36982;51.474;7.228;2023-05-23T05:59:50;14.60;86.70
50969;DHT22;36982;51.474;7.228;2023-05-23T06:02:16;14.60;87.50
50969;DHT22;36982;51.474;7.228;2023-05-23T06:04:42;14.60;88.60
50969;DHT22;36982;51.474;7.228;2023-05-23T06:07:23;14.60;85.50
50969;DHT22;36982;51.474;7.228;2023-05-23T06:09:52;14.60;86.30
50969;DHT22;36982;51.474;7.228;2023-05-23T06:12:17;14.60;84.40
50969;DHT22;36982;51.474;7.228;2023-05-23T06:17:36;14.50;83.40
50969;DHT22;36982;51.474;7.228;2023-05-23T06:20:01;14.50;85.20
50969;DHT22;36982;51.474;7.228;2023-05-23T06:22:29;14.50;87.90
50969;DHT22;36982;51.474;7.228;2023-05-23T06:24:55;14.50;84.50
50969;DHT22;36982;51.474;7.228;2023-05-23T06:27:20;14.50;86.00
50969;DHT22;36982;51.474;7.228;2023-05-23T06:29:46;14.50;81.10
50969;DHT22;36982;51.474;7.228;2023-05-23T06:32:12;14.50;81.30
50969;DHT22;36982;51.474;7.228;2023-05-23T06:34:37;14.50;78.70
50969;DHT22;36982;51.474;7.228;2023-05-23T06:37:03;14.40;77.10
50969;DHT22;36982;51.474;7.228;2023-05-23T06:39:28;14.40;82.80
50969;DHT22;36982;51.474;7.228;2023-05-23T06:41:54;14.40;82.20
50969;DHT22;36982;51.474;7.228;2023-05-23T06:44:20;14.40;77.50
50969;DHT22;36982;51.474;7.228;2023-05-23T06:46:46;14.50;71.20
50969;DHT22;36982;51.474;7.228;2023-05-23T06:49:12;14.40;69.50
50969;DHT22;36982;51.474;7.228;2023-05-23T06:51:38;14.50;71.70
50969;DHT22;36982;51.474;7.228;2023-05-23T06:54:04;14.60;63.90
50969;DHT22;36982;51.474;7.228;2023-05-23T06:56:30;14.60;62.50
50969;DHT22;36982;51.474;7.228;2023-05-23T06:58:55;14.40;55.80
50969;DHT22;36982;51.474;7.228;2023-05-23T07:01:21;14.40;59.20
50969;DHT22;36982;51.474;7.228;2023-05-23T07:03:47;14.30;57.80
50969;DHT22;36982;51.474;7.228;2023-05-23T07:06:12;14.20;66.60
50969;DHT22;36982;51.474;7.228;2023-05-23T07:08:38;14.30;69.40
50969;DHT22;36982;51.474;7.228;2023-05-23T07:11:04;14.20;61.60
50969;DHT22;36982;51.474;7.228;2023-05-23T07:13:33;14.20;61.00
50969;DHT22;36982;51.474;7.228;2023-05-23T07:15:59;14.20;62.00
50969;DHT22;36982;51.474;7.228;2023-05-23T07:18:24;14.20;63.00
50969;DHT22;36982;51.474;7.228;2023-05-23T07:20:50;14.10;67.00
50969;DHT22;36982;51.474;7.228;2023-05-23T07:23:16;14.10;67.70
50969;DHT22;36982;51.474;7.228;2023-05-23T07:25:42;14.00;66.70
50969;DHT22;36982;51.474;7.228;2023-05-23T07:28:08;14.10;67.40
50969;DHT22;36982;51.474;7.228;2023-05-23T07:30:34;14.20;68.20
50969;DHT22;36982;51.474;7.228;2023-05-23T07:33:00;14.30;60.60
50969;DHT22;36982;51.474;7.228;2023-05-23T07:35:26;14.30;61.10
50969;DHT22;36982;51.474;7.228;2023-05-23T07:37:52;14.30;54.90
50969;DHT22;36982;51.474;7.228;2023-05-23T07:40:18;14.20;62.60
50969;DHT22;36982;51.474;7.228;2023-05-23T07:42:44;14.30;53.20
50969;DHT22;36982;51.474;7.228;2023-05-23T07:45:10;14.20;48.50
50969;DHT22;36982;51.474;7.228;2023-05-23T07:47:36;14.20;48.70
50969;DHT22;36982;51.474;7.228;2023-05-23T07:50:01;14.30;49.30
50969;DHT22;36982;51.474;7.228;2023-05-23T07:52:30;14.30;54.80
50969;DHT22;36982;51.474;7.228;2023-05-23T07:54:57;14.40;53.20
50969;DHT22;36982;51.474;7.228;2023-05-23T07:57:22;14.50;36.70
50969;DHT22;36982;51.474;7.228;2023-05-23T07:59:52;14.50;34.90
50969;DHT22;36982;51.474;7.228;2023-05-23T08:02:18;14.40;44.80
50969;DHT22;36982;51.474;7.228;2023-05-23T08:04:47;14.40;39.90
50969;DHT22;36982;51.474;7.228;2023-05-23T08:07:13;14.40;44.10
50969;DHT22;36982;51.474;7.228;2023-05-23T08:09:39;14.40;32.60
50969;DHT22;36982;51.474;7.228;2023-05-23T08:12:06;14.30;43.70
50969;DHT22;36982;51.474;7.228;2023-05-23T08:14:32;14.30;52.00
50969;DHT22;36982;51.474;7.228;2023-05-23T08:16:57;14.30;46.80
50969;DHT22;36982;51.474;7.228;2023-05-23T08:19:23;14.20;50.60
50969;DHT22;36982;51.474;7.228;2023-05-23T08:21:49;14.20;57.80
50969;DHT22;36982;51.474;7.228;2023-05-23T08:24:15;14.20;55.30
50969;DHT22;36982;51.474;7.228;2023-05-23T08:26:41;14.30;50.70
50969;DHT22;36982;51.474;7.228;2023-05-23T08:29:07;14.40;40.70
50969;DHT22;36982;51.474;7.228;2023-05-23T08:31:34;14.50;31.70
50969;DHT22;36982;51.474;7.228;2023-05-23T08:34:00;14.40;41.00
50969;DHT22;36982;51.474;7.228;2023-05-23T08:36:26;14.50;43.20
50969;DHT22;36982;51.474;7.228;2023-05-23T08:38:52;14.40;40.20
50969;DHT22;36982;51.474;7.228;2023-05-23T08:41:19;14.50;31.70
50969;DHT22;36982;51.474;7.228;2023-05-23T08:43:45;14.30;43.10
50969;DHT22;36982;51.474;7.228;2023-05-23T08:46:12;14.10;51.10
50969;DHT22;36982;51.474;7.228;2023-05-23T08:48:38;14.00;54.30
50969;DHT22;36982;51.474;7.228;2023-05-23T08:51:06;13.80;63.90
50969;DHT22;36982;51.474;7.228;2023-05-23T08:53:35;13.80;71.40
50969;DHT22;36982;51.474;7.228;2023-05-23T08:56:03;13.70;76.20
50969;DHT22;36982;51.474;7.228;2023-05-23T08:58:32;13.70;83.90
50969;DHT22;36982;51.474;7.228;2023-05-23T09:00:59;13.70;88.20
50969;DHT22;36982;51.474;7.228;2023-05-23T09:03:26;13.60;90.70
50969;DHT22;36982;51.474;7.228;2023-05-23T09:05:55;13.60;92.20
50969;DHT22;36982;51.474;7.228;2023-05-23T09:08:22;13.50;89.10
50969;DHT22;36982;51.474;7.228;2023-05-23T09:10:51;13.50;88.60
50969;DHT22;36982;51.474;7.228;2023-05-23T09:13:17;13.50;82.00
50969;DHT22;36982;51.474;7.228;2023-05-23T09:16:04;13.40;81.00
50969;DHT22;36982;51.474;7.228;2023-05-23T09:18:36;13.30;88.50
50969;DHT22;36982;51.474;7.228;2023-05-23T09:21:03;13.40;88.90
50969;DHT22;36982;51.474;7.228;2023-05-23T09:23:32;13.40;79.20
50969;DHT22;36982;51.474;7.228;2023-05-23T09:26:03;13.40;77.80
50969;DHT22;36982;51.474;7.228;2023-05-23T09:28:29;13.40;70.90
50969;DHT22;36982;51.474;7.228;2023-05-23T09:30:59;13.30;74.10
50969;DHT22;36982;51.474;7.228;2023-05-23T09:33:38;13.30;77.10
50969;DHT22;36982;51.474;7.228;2023-05-23T09:36:05;13.30;71.50
50969;DHT22;36982;51.474;7.228;2023-05-23T09:38:31;13.30;69.30
50969;DHT22;36982;51.474;7.228;2023-05-23T09:40:58;13.30;65.80
50969;DHT22;36982;51.474;7.228;2023-05-23T09:43:24;13.50;53.30
50969;DHT22;36982;51.474;7.228;2023-05-23T09:45:51;13.60;46.70
50969;DHT22;36982;51.474;7.228;2023-05-23T09:48:16;13.70;32.90
50969;DHT22;36982;51.474;7.228;2023-05-23T09:50:45;13.70;25.10
50969;DHT22;36982;51.474;7.228;2023-05-23T09:53:11;13.80;20.30
50969;DHT22;36982;51.474;7.228;2023-05-23T09:55:37;13.90;17.90
50969;DHT22;36982;51.474;7.228;2023-05-23T09:58:05;14.10;11.40
50969;DHT22;36982;51.474;7.228;2023-05-23T10:00:31;14.20;10.10
50969;DHT22;36982;51.474;7.228;2023-05-23T10:03:10;14.20;2.50
50969;DHT22;36982;51.474;7.228;2023-05-23T10:05:43;14.20;2.00
50969;DHT22;36982;51.474;7.228;2023-05-23T10:08:34;14.10;1.00
50969;DHT22;36982;51.474;7.228;2023-05-23T10:13:48;14.00;9.50
50969;DHT22;36982;51.474;7.228;2023-05-23T10:16:18;14.00;14.10
50969;DHT22;36982;51.474;7.228;2023-05-23T10:18:48;13.80;16.70
50969;DHT22;36982;51.474;7.228;2023-05-23T10:21:24;13.70;19.10
50969;DHT22;36982;51.474;7.228;2023-05-23T10:23:53;13.50;31.00
50969;DHT22;36982;51.474;7.228;2023-05-23T10:26:20;13.50;29.30
50969;DHT22;36982;51.474;7.228;2023-05-23T10:28:48;13.40;32.40
50969;DHT22;36982;51.474;7.228;2023-05-23T10:31:15;13.30;37.60
50969;DHT22;36982;51.474;7.228;2023-05-23T10:33:47;13.30;34.80
50969;DHT22;36982;51.474;7.228;2023-05-23T10:36:23;13.10;37.40
50969;DHT22;36982;51.474;7.228;2023-05-23T10:39:04;13.00;38.70
50969;DHT22;36982;51.474;7.228;2023-05-23T10:41:43;12.90;34.90
50969;DHT22;36982;51.474;7.228;2023-05-23T10:44:24;12.80;28.00
50969;DHT22;36982;51.474;7.228;2023-05-23T10:46:56;12.80;22.90
50969;DHT22;36982;51.474;7.228;2023-05-23T10:49:42;12.90;27.30
50969;DHT22;36982;51.474;7.228;2023-05-23T10:52:10;12.90;20.10
50969;DHT22;36982;51.474;7.228;2023-05-23T10:54:54;13.10;15.40
50969;DHT22;36982;51.474;7.228;2023-05-23T10:57:22;13.40;1.00
50969;DHT22;36982;51.474;7.228;2023-05-23T10:59:51;13.60;1.00
50969;DHT22;36982;51.474;7.228;2023-05-23T11:02:27;13.90;1.00
50969;DHT22;36982;51.474;7.228;2023-05-23T11:05:19;14.20;1.00
50969;DHT22;36982;51.474;7.228;2023-05-23T11:08:09;14.20;1.00
50969;DHT22;36982;51.474;7.228;2023-05-23T11:10:51;14.30;1.00
50969;DHT22;36982;51.474;7.228;2023-05-23T11:13:21;14.50;1.00
50969;DHT22;36982;51.474;7.228;2023-05-23T11:15:47;14.70;1.00
50969;DHT22;36982;51.474;7.228;2023-05-23T11:18:26;14.40;99.90
50969;DHT22;36982;51.474;7.228;2023-05-23T11:20:53;14.40;1.00
50969;DHT22;36982;51.474;7.228;2023-05-23T11:23:20;14.50;99.90
50969;DHT22;36982;51.474;7.228;2023-05-23T11:25:51;14.30;99.90
50969;DHT22;36982;51.474;7.228;2023-05-23T11:28:18;14.20;99.90
50969;DHT22;36982;51.474;7.228;2023-05-23T11:30:47;14.10;1.00
50969;DHT22;36982;51.474;7.228;2023-05-23T11:33:15;14.10;99.90
50969;DHT22;36982;51.474;7.228;2023-05-23T11:35:42;14.30;99.90
50969;DHT22;36982;51.474;7.228;2023-05-23T11:38:09;14.20;99.90
50969;DHT22;36982;51.474;7.228;2023-05-23T11:40:36;14.30;99.90
50969;DHT22;36982;51.474;7.228;2023-05-23T11:43:04;14.30;99.90
50969;DHT22;36982;51.474;7.228;2023-05-23T11:45:31;14.20;99.90
50969;DHT22;36982;51.474;7.228;2023-05-23T11:47:57;14.20;1.00
50969;DHT22;36982;51.474;7.228;2023-05-23T11:50:23;14.20;99.90
50969;DHT22;36982;51.474;7.228;2023-05-23T11:52:49;14.40;99.90
50969;DHT22;36982;51.474;7.228;2023-05-23T11:55:19;14.50;99.90
50969;DHT22;36982;51.474;7.228;2023-05-23T11:57:49;14.70;99.90
50969;DHT22;36982;51.474;7.228;2023-05-23T12:00:15;14.80;99.90
50969;DHT22;36982;51.474;7.228;2023-05-23T12:02:41;15.00;99.90
50969;DHT22;36982;51.474;7.228;2023-05-23T12:05:12;14.80;99.90
50969;DHT22;36982;51.474;7.228;2023-05-23T12:07:46;14.60;99.90
50969;DHT22;36982;51.474;7.228;2023-05-23T12:10:14;14.50;99.90
50969;DHT22;36982;51.474;7.228;2023-05-23T12:12:44;14.70;99.90
50969;DHT22;36982;51.474;7.228;2023-05-23T12:15:10;14.90;99.90
50969;DHT22;36982;51.474;7.228;2023-05-23T12:17:45;14.80;99.90
50969;DHT22;36982;51.474;7.228;2023-05-23T12:20:11;14.80;99.90
50969;DHT22;36982;51.474;7.228;2023-05-23T12:22:37;14.90;99.90
50969;DHT22;36982;51.474;7.228;2023-05-23T12:25:07;14.90;99.90
50969;DHT22;36982;51.474;7.228;2023-05-23T12:27:34;15.00;1.00
50969;DHT22;36982;51.474;7.228;2023-05-23T12:30:07;15.20;1.00
50969;DHT22;36982;51.474;7.228;2023-05-23T12:32:34;15.40;99.90
50969;DHT22;36982;51.474;7.228;2023-05-23T12:35:00;15.40;1.00
50969;DHT22;36982;51.474;7.228;2023-05-23T12:37:26;15.40;99.90
50969;DHT22;36982;51.474;7.228;2023-05-23T12:39:51;15.60;99.90
50969;DHT22;36982;51.474;7.228;2023-05-23T12:42:17;15.70;99.90
50969;DHT22;36982;51.474;7.228;2023-05-23T12:44:43;15.80;99.90
50969;DHT22;36982;51.474;7.228;2023-05-23T12:47:10;16.00;99.90
50969;DHT22;36982;51.474;7.228;2023-05-23T12:49:37;16.20;1.00
50969;DHT22;36982;51.474;7.228;2023-05-23T12:52:03;16.10;90.50
50969;DHT22;36982;51.474;7.228;2023-05-23T12:54:28;16.30;99.90
50969;DHT22;36982;51.474;7.228;2023-05-23T12:56:54;16.20;99.90
50969;DHT22;36982;51.474;7.228;2023-05-23T12:59:20;16.20;1.00
50969;DHT22;36982;51.474;7.228;2023-05-23T13:01:45;16.20;64.40
50969;DHT22;36982;51.474;7.228;2023-05-23T13:04:11;16.30;1.00
50969;DHT22;36982;51.474;7.228;2023-05-23T13:06:37;16.60;1.00
50969;DHT22;36982;51.474;7.228;2023-05-23T13:09:03;16.70;99.90
50969;DHT22;36982;51.474;7.228;2023-05-23T13:11:29;16.60;99.90
50969;DHT22;36982;51.474;7.228;2023-05-23T13:13:56;16.60;99.90
50969;DHT22;36982;51.474;7.228;2023-05-23T13:16:22;16.40;1.00
50969;DHT22;36982;51.474;7.228;2023-05-23T13:18:47;16.30;99.90
50969;DHT22;36982;51.474;7.228;2023-05-23T13:21:13;16.50;99.90
50969;DHT22;36982;51.474;7.228;2023-05-23T13:23:39;16.70;99.90
50969;DHT22;36982;51.474;7.228;2023-05-23T13:26:05;16.60;21.00
50969;DHT22;36982;51.474;7.228;2023-05-23T13:28:32;16.50;1.00
50969;DHT22;36982;51.474;7.228;2023-05-23T13:30:57;16.50;1.00
50969;DHT22;36982;51.474;7.228;2023-05-23T13:33:23;16.60;1.00
50969;DHT22;36982;51.474;7.228;2023-05-23T13:35:49;16.70;99.90
50969;DHT22;36982;51.474;7.228;2023-05-23T13:38:17;16.70;99.90
50969;DHT22;36982;51.474;7.228;2023-05-23T13:40:43;16.80;99.90
50969;DHT22;36982;51.474;7.228;2023-05-23T13:43:09;16.80;99.90
50969;DHT22;36982;51.474;7.228;2023-05-23T13:45:35;16.90;87.10
50969;DHT22;36982;51.474;7.228;2023-05-23T13:48:01;17.00;99.90
50969;DHT22;36982;51.474;7.228;2023-05-23T13:50:26;17.00;1.00
50969;DHT22;36982;51.474;7.228;2023-05-23T13:52:52;16.90;1.00
50969;DHT22;36982;51.474;7.228;2023-05-23T13:55:18;16.90;1.00
50969;DHT22;36982;51.474;7.228;2023-05-23T13:57:44;16.90;1.00
50969;DHT22;36982;51.474;7.228;2023-05-23T14:00:10;17.00;1.00
50969;DHT22;36982;51.474;7.228;2023-05-23T14:02:36;16.90;99.90
50969;DHT22;36982;51.474;7.228;2023-05-23T14:05:02;16.90;99.90
50969;DHT22;36982;51.474;7.228;2023-05-23T14:07:29;16.90;99.90
50969;DHT22;36982;51.474;7.228;2023-05-23T14:09:55;16.70;99.90
50969;DHT22;36982;51.474;7.228;2023-05-23T14:12:22;16.60;99.90
50969;DHT22;36982;51.474;7.228;2023-05-23T14:14:47;16.50;99.90
50969;DHT22;36982;51.474;7.228;2023-05-23T14:17:16;16.50;99.90
50969;DHT22;36982;51.474;7.228;2023-05-23T14:19:42;16.60;99.90
50969;DHT22;36982;51.474;7.228;2023-05-23T14:22:08;16.90;99.90
50969;DHT22;36982;51.474;7.228;2023-05-23T14:24:34;16.90;99.90
50969;DHT22;36982;51.474;7.228;2023-05-23T14:26:59;17.00;99.90
50969;DHT22;36982;51.474;7.228;2023-05-23T14:29:26;16.50;77.00
50969;DHT22;36982;51.474;7.228;2023-05-23T14:31:52;16.40;99.90
50969;DHT22;36982;51.474;7.228;2023-05-23T14:34:18;16.60;85.20
50969;DHT22;36982;51.474;7.228;2023-05-23T14:36:43;16.60;99.90
50969;DHT22;36982;51.474;7.228;2023-05-23T14:39:09;16.70;1.00
50969;DHT22;36982;51.474;7.228;2023-05-23T14:41:35;16.60;1.00
50969;DHT22;36982;51.474;7.228;2023-05-23T14:44:02;16.60;1.00
50969;DHT22;36982;51.474;7.228;2023-05-23T14:46:28;16.50;1.00
50969;DHT22;36982;51.474;7.228;2023-05-23T14:48:53;16.40;1.00
50969;DHT22;36982;51.474;7.228;2023-05-23T14:51:19;16.60;1.00
50969;DHT22;36982;51.474;7.228;2023-05-23T14:53:45;16.90;99.90
50969;DHT22;36982;51.474;7.228;2023-05-23T14:56:10;16.90;1.00
50969;DHT22;36982;51.474;7.228;2023-05-23T14:58:36;17.00;99.90
50969;DHT22;36982;51.474;7.228;2023-05-23T15:01:04;17.00;99.90
50969;DHT22;36982;51.474;7.228;2023-05-23T15:03:30;17.00;99.90
50969;DHT22;36982;51.474;7.228;2023-05-23T15:05:56;16.90;99.90
50969;DHT22;36982;51.474;7.228;2023-05-23T15:08:22;16.80;99.90
50969;DHT22;36982;51.474;7.228;2023-05-23T15:10:47;16.60;99.90
50969;DHT22;36982;51.474;7.228;2023-05-23T15:13:13;16.60;99.90
50969;DHT22;36982;51.474;7.228;2023-05-23T15:16:01;16.50;99.90
50969;DHT22;36982;51.474;7.228;2023-05-23T15:18:27;16.50;99.90
50969;DHT22;36982;51.474;7.228;2023-05-23T15:20:55;16.50;99.90
50969;DHT22;36982;51.474;7.228;2023-05-23T15:23:21;16.60;99.90
50969;DHT22;36982;51.474;7.228;2023-05-23T15:25:46;16.80;99.90
50969;DHT22;36982;51.474;7.228;2023-05-23T15:28:12;16.80;99.90
50969;DHT22;36982;51.474;7.228;2023-05-23T15:30:37;16.70;99.90
50969;DHT22;36982;51.474;7.228;2023-05-23T15:33:03;16.70;99.90
50969;DHT22;36982;51.474;7.228;2023-05-23T15:35:29;16.70;99.90
50969;DHT22;36982;51.474;7.228;2023-05-23T15:37:55;16.80;99.90
50969;DHT22;36982;51.474;7.228;2023-05-23T15:40:20;16.60;99.90
50969;DHT22;36982;51.474;7.228;2023-05-23T15:42:46;16.50;99.90
50969;DHT22;36982;51.474;7.228;2023-05-23T15:45:12;16.40;99.90
50969;DHT22;36982;51.474;7.228;2023-05-23T15:47:37;16.40;99.90